| time (UTC) | temp F | wind direction | speed MPH | gust MPH | rain 1hr in | rain 24hr in | rain mn in | humidity % | barometer mb |
| 20260510230242 | 59 | 108 | 0.0 | 0.0 | 0.00 | 0.00 | 0.00 | 43 | 1017.8 |
| 20260510225740 | 59 | 156 | 0.0 | 0.0 | 0.00 | 0.00 | 0.00 | 43 | 1017.8 |
| 20260510225235 | 59 | 92 | 0.0 | 0.0 | 0.00 | 0.00 | 0.00 | 42 | 1017.8 |
| 20260510224731 | 59 | 96 | 0.0 | 0.0 | 0.00 | 0.00 | 0.00 | 40 | 1017.8 |
| 20260510224228 | 59 | 48 | 2.0 | 2.0 | 0.00 | 0.00 | 0.00 | 41 | 1017.8 |
| 20260510223725 | 59 | 90 | 0.0 | 0.0 | 0.00 | 0.00 | 0.00 | 43 | 1017.8 |
| 20260510223222 | 59 | 70 | 0.0 | 0.0 | 0.00 | 0.00 | 0.00 | 42 | 1017.8 |
| 20260510222719 | 59 | 43 | 2.0 | 2.0 | 0.00 | 0.00 | 0.00 | 44 | 1018.2 |
| 20260510222216 | 59 | 24 | 0.0 | 0.0 | 0.00 | 0.00 | 0.00 | 44 | 1018.2 |
| 20260510221711 | 59 | 330 | 0.0 | 0.0 | 0.00 | 0.00 | 0.00 | 41 | 1018.2 |
| 20260510221209 | 59 | 342 | 0.0 | 0.0 | 0.00 | 0.00 | 0.00 | 42 | 1017.5 |
| 20260510220706 | 59 | 29 | 4.0 | 4.0 | 0.00 | 0.00 | 0.00 | 43 | 1017.5 |
| 20260510220205 | 59 | 24 | 4.0 | 4.0 | 0.00 | 0.00 | 0.00 | 41 | 1017.5 |
| 20260510215703 | 58 | 57 | 0.0 | 0.0 | 0.00 | 0.00 | 0.00 | 49 | 1017.5 |
| 20260510215201 | 58 | 54 | 3.0 | 3.0 | 0.00 | 0.00 | 0.00 | 46 | 1017.5 |
| 20260510214658 | 58 | 330 | 4.0 | 4.0 | 0.00 | 0.00 | 0.00 | 44 | 1017.5 |
| 20260510214155 | 58 | 78 | 0.0 | 0.0 | 0.00 | 0.00 | 0.00 | 43 | 1017.2 |
| 20260510213651 | 58 | 84 | 3.0 | 3.0 | 0.00 | 0.00 | 0.00 | 43 | 1017.2 |
| 20260510213148 | 59 | 57 | 2.0 | 2.0 | 0.00 | 0.00 | 0.00 | 43 | 1017.2 |
| 20260510212644 | 59 | 44 | 6.0 | 6.0 | 0.00 | 0.00 | 0.00 | 43 | 1016.8 |
| 20260510212143 | 60 | 78 | 2.0 | 2.0 | 0.00 | 0.00 | 0.00 | 43 | 1016.8 |
| 20260510211639 | 59 | 96 | 0.0 | 0.0 | 0.00 | 0.00 | 0.00 | 46 | 1016.8 |
| 20260510211138 | 59 | 84 | 0.0 | 0.0 | 0.00 | 0.00 | 0.00 | 43 | 1016.8 |
| 20260510210636 | 59 | 105 | 0.0 | 0.0 | 0.00 | 0.00 | 0.00 | 42 | 1016.8 |
| 20260510210131 | 59 | 136 | 0.0 | 0.0 | 0.00 | 0.00 | 0.00 | 45 | 1016.8 |
| 20260510205630 | 60 | 106 | 3.0 | 3.0 | 0.00 | 0.00 | 0.00 | 45 | 1016.8 |
| 20260510205126 | 59 | 108 | 2.0 | 2.0 | 0.00 | 0.00 | 0.00 | 42 | 1016.8 |
| 20260510204622 | 59 | 74 | 4.0 | 4.0 | 0.00 | 0.00 | 0.00 | 46 | 1016.8 |
| 20260510204119 | 59 | 73 | 3.0 | 3.0 | 0.00 | 0.00 | 0.00 | 44 | 1016.8 |
| 20260510203616 | 58 | 103 | 2.0 | 2.0 | 0.00 | 0.00 | 0.00 | 44 | 1016.8 |
| 20260510203113 | 59 | 50 | 3.0 | 3.0 | 0.00 | 0.00 | 0.00 | 44 | 1016.8 |
| 20260510202612 | 59 | 14 | 0.0 | 0.0 | 0.00 | 0.00 | 0.00 | 42 | 1017.2 |
| 20260510202108 | 59 | 36 | 4.0 | 4.0 | 0.00 | 0.00 | 0.00 | 43 | 1017.2 |
| 20260510201606 | 58 | 39 | 4.0 | 4.0 | 0.00 | 0.00 | 0.00 | 43 | 1017.2 |
| 20260510201103 | 59 | 50 | 4.0 | 4.0 | 0.00 | 0.00 | 0.00 | 44 | 1017.2 |
| 20260510200558 | 59 | 230 | 0.0 | 0.0 | 0.00 | 0.00 | 0.00 | 42 | 1017.2 |
| 20260510200057 | 59 | 349 | 0.0 | 0.0 | 0.00 | 0.00 | 0.00 | 42 | 1017.2 |
| 20260510195554 | 59 | 35 | 2.0 | 2.0 | 0.00 | 0.00 | 0.00 | 45 | 1017.2 |
| 20260510195049 | 58 | 97 | 0.0 | 0.0 | 0.00 | 0.00 | 0.00 | 47 | 1017.2 |
| 20260510194544 | 59 | 162 | 0.0 | 0.0 | 0.00 | 0.00 | 0.00 | 45 | 1017.5 |
| 20260510194041 | 59 | 304 | 0.0 | 0.0 | 0.00 | 0.00 | 0.00 | 42 | 1017.5 |
| 20260510193536 | 58 | 119 | 0.0 | 0.0 | 0.00 | 0.00 | 0.00 | 44 | 1017.5 |
| 20260510193032 | 58 | 66 | 2.0 | 2.0 | 0.00 | 0.00 | 0.00 | 49 | 1017.2 |
| 20260510192531 | 58 | 43 | 6.0 | 6.0 | 0.00 | 0.00 | 0.00 | 44 | 1017.2 |
| 20260510192028 | 58 | 20 | 5.0 | 5.0 | 0.00 | 0.00 | 0.00 | 45 | 1017.2 |
| 20260510191524 | 58 | 54 | 0.0 | 0.0 | 0.00 | 0.00 | 0.00 | 45 | 1017.2 |
| 20260510191021 | 58 | 342 | 6.0 | 6.0 | 0.00 | 0.00 | 0.00 | 41 | 1017.5 |
| 20260510190519 | 59 | 354 | 4.0 | 4.0 | 0.00 | 0.00 | 0.00 | 44 | 1017.5 |
| 20260510190016 | 59 | 72 | 0.0 | 0.0 | 0.00 | 0.00 | 0.00 | 41 | 1017.5 |
| 20260510185512 | 59 | 177 | 2.0 | 2.0 | 0.00 | 0.00 | 0.00 | 42 | 1017.5 |
| 20260510185010 | 59 | 312 | 5.0 | 5.0 | 0.00 | 0.00 | 0.00 | 41 | 1017.5 |
| 20260510184507 | 58 | 38 | 6.0 | 6.0 | 0.00 | 0.00 | 0.00 | 41 | 1017.2 |
| 20260510184002 | 60 | 6 | 4.0 | 4.0 | 0.00 | 0.00 | 0.00 | 43 | 1017.2 |
| 20260510183458 | 60 | 315 | 5.0 | 5.0 | 0.00 | 0.00 | 0.00 | 40 | 1017.2 |
| 20260510182953 | 60 | 294 | 2.0 | 2.0 | 0.00 | 0.00 | 0.00 | 43 | 1017.2 |
| 20260510182450 | 60 | 312 | 1.0 | 1.0 | 0.00 | 0.00 | 0.00 | 43 | 1017.2 |
| 20260510181945 | 59 | 264 | 2.0 | 2.0 | 0.00 | 0.00 | 0.00 | 43 | 1017.2 |
| 20260510181444 | 59 | 46 | 6.0 | 6.0 | 0.00 | 0.00 | 0.00 | 42 | 1017.2 |
| 20260510180939 | 59 | 2 | 7.0 | 8.0 | 0.00 | 0.00 | 0.00 | 43 | 1017.2 |
| 20260510180437 | 59 | 354 | 6.0 | 7.0 | 0.00 | 0.00 | 0.00 | 42 | 1017.2 |
| 20260510175933 | 58 | 8 | 5.0 | 6.0 | 0.00 | 0.00 | 0.00 | 46 | 1017.2 |
| 20260510175429 | 58 | 316 | 4.0 | 4.0 | 0.00 | 0.00 | 0.00 | 41 | 1017.2 |
| 20260510174925 | 58 | 6 | 4.0 | 4.0 | 0.00 | 0.00 | 0.00 | 43 | 1017.2 |
| 20260510174424 | 58 | 66 | 4.0 | 5.0 | 0.00 | 0.00 | 0.00 | 45 | 1017.2 |
| 20260510173919 | 58 | 84 | 4.0 | 4.0 | 0.00 | 0.00 | 0.00 | 48 | 1017.2 |
| 20260510173415 | 58 | 79 | 7.0 | 8.0 | 0.00 | 0.00 | 0.00 | 47 | 1017.2 |
| 20260510172912 | 57 | 32 | 5.0 | 5.0 | 0.00 | 0.00 | 0.00 | 46 | 1017.2 |
| 20260510172408 | 58 | 84 | 4.0 | 4.0 | 0.00 | 0.00 | 0.00 | 46 | 1017.2 |
| 20260510171904 | 57 | 6 | 6.0 | 6.0 | 0.00 | 0.00 | 0.00 | 45 | 1017.2 |
| 20260510171401 | 57 | 313 | 2.0 | 2.0 | 0.00 | 0.00 | 0.00 | 41 | 1017.5 |
| 20260510170858 | 57 | 37 | 3.0 | 3.0 | 0.00 | 0.00 | 0.00 | 44 | 1017.5 |
| 20260510170355 | 57 | 12 | 4.0 | 4.0 | 0.00 | 0.00 | 0.00 | 43 | 1017.5 |
| 20260510165850 | 58 | 9 | 4.0 | 4.0 | 0.00 | 0.00 | 0.00 | 43 | 1017.5 |
| 20260510165347 | 58 | 36 | 0.0 | 0.0 | 0.00 | 0.00 | 0.00 | 43 | 1017.5 |
| 20260510164844 | 58 | 314 | 2.0 | 2.0 | 0.00 | 0.00 | 0.00 | 43 | 1017.5 |
| 20260510164341 | 57 | 0 | 9.0 | 10.0 | 0.00 | 0.00 | 0.00 | 46 | 1017.5 |
| 20260510163841 | 57 | 24 | 2.0 | 2.0 | 0.00 | 0.00 | 0.00 | 41 | 1017.5 |
| 20260510163338 | 57 | 17 | 7.0 | 9.0 | 0.00 | 0.00 | 0.00 | 42 | 1017.5 |
| 20260510162837 | 56 | 17 | 3.0 | 3.0 | 0.00 | 0.00 | 0.00 | 45 | 1017.5 |
| 20260510162335 | 56 | 37 | 5.0 | 5.0 | 0.00 | 0.00 | 0.00 | 43 | 1017.5 |
| 20260510161830 | 57 | 354 | 5.0 | 6.0 | 0.00 | 0.00 | 0.00 | 43 | 1017.5 |
| 20260510161327 | 57 | 355 | 5.0 | 5.0 | 0.00 | 0.00 | 0.00 | 43 | 1017.2 |
| 20260510160824 | 57 | 299 | 3.0 | 3.0 | 0.00 | 0.00 | 0.00 | 43 | 1017.2 |
| 20260510160321 | 56 | 0 | 4.0 | 4.0 | 0.00 | 0.00 | 0.00 | 42 | 1017.2 |
| 20260510155820 | 57 | 347 | 3.0 | 3.0 | 0.00 | 0.00 | 0.00 | 45 | 1016.8 |
| 20260510155318 | 56 | 57 | 5.0 | 5.0 | 0.00 | 0.00 | 0.00 | 48 | 1016.8 |
| 20260510154814 | 56 | 23 | 8.0 | 9.0 | 0.00 | 0.00 | 0.00 | 47 | 1016.8 |
| 20260510154310 | 56 | 337 | 2.0 | 2.0 | 0.00 | 0.00 | 0.00 | 46 | 1017.2 |
| 20260510153809 | 56 | 48 | 4.0 | 4.0 | 0.00 | 0.00 | 0.00 | 47 | 1017.2 |
| 20260510153306 | 56 | 317 | 5.0 | 5.0 | 0.00 | 0.00 | 0.00 | 48 | 1017.2 |
| 20260510152803 | 55 | 17 | 5.0 | 5.0 | 0.00 | 0.00 | 0.00 | 47 | 1016.8 |
| 20260510152300 | 55 | 31 | 2.0 | 2.0 | 0.00 | 0.00 | 0.00 | 49 | 1016.8 |
| 20260510151756 | 56 | 48 | 8.0 | 9.0 | 0.00 | 0.00 | 0.00 | 49 | 1016.8 |
| 20260510151255 | 56 | 24 | 3.0 | 3.0 | 0.00 | 0.00 | 0.00 | 54 | 1016.8 |
| 20260510150749 | 55 | 305 | 4.0 | 4.0 | 0.00 | 0.00 | 0.00 | 56 | 1016.8 |
| 20260510150246 | 55 | 138 | 2.0 | 2.0 | 0.00 | 0.00 | 0.00 | 55 | 1016.8 |
| 20260510145742 | 55 | 49 | 5.0 | 5.0 | 0.00 | 0.00 | 0.00 | 56 | 1016.5 |
| 20260510145239 | 54 | 66 | 0.0 | 0.0 | 0.00 | 0.00 | 0.00 | 62 | 1016.5 |
| 20260510144734 | 55 | 66 | 3.0 | 3.0 | 0.00 | 0.00 | 0.00 | 63 | 1016.5 |
| 20260510144232 | 55 | 341 | 4.0 | 5.0 | 0.00 | 0.00 | 0.00 | 62 | 1016.5 |
| 20260510143726 | 55 | 36 | 0.0 | 0.0 | 0.00 | 0.00 | 0.00 | 66 | 1016.5 |
| 20260510143223 | 54 | 79 | 0.0 | 0.0 | 0.00 | 0.00 | 0.00 | 65 | 1016.5 |
| 20260510142719 | 54 | 34 | 4.0 | 4.0 | 0.00 | 0.00 | 0.00 | 65 | 1016.5 |
| 20260510142216 | 54 | 44 | 2.0 | 2.0 | 0.00 | 0.00 | 0.00 | 65 | 1016.5 |
| 20260510141713 | 53 | 26 | 3.0 | 4.0 | 0.00 | 0.00 | 0.00 | 67 | 1016.5 |
| 20260510141212 | 53 | 38 | 5.0 | 5.0 | 0.00 | 0.00 | 0.00 | 67 | 1016.5 |
| 20260510140708 | 53 | 6 | 6.0 | 6.0 | 0.00 | 0.00 | 0.00 | 69 | 1016.5 |
| 20260510140207 | 53 | 54 | 8.0 | 10.0 | 0.00 | 0.00 | 0.00 | 68 | 1016.5 |
| 20260510135702 | 53 | 60 | 3.0 | 3.0 | 0.00 | 0.00 | 0.00 | 68 | 1016.0 |
| 20260510135158 | 53 | 17 | 3.0 | 3.0 | 0.00 | 0.00 | 0.00 | 63 | 1016.0 |
| 20260510134656 | 54 | 42 | 6.0 | 7.0 | 0.00 | 0.00 | 0.00 | 65 | 1016.0 |
| 20260510134153 | 53 | 18 | 5.0 | 6.0 | 0.00 | 0.00 | 0.00 | 64 | 1016.5 |
| 20260510133649 | 53 | 39 | 6.0 | 6.0 | 0.00 | 0.00 | 0.00 | 62 | 1016.5 |
| 20260510133144 | 53 | 29 | 5.0 | 5.0 | 0.00 | 0.00 | 0.00 | 62 | 1016.5 |
| 20260510132641 | 53 | 12 | 4.0 | 4.0 | 0.00 | 0.00 | 0.00 | 64 | 1016.0 |
| 20260510132138 | 53 | 34 | 2.0 | 2.0 | 0.00 | 0.00 | 0.00 | 65 | 1016.0 |
| 20260510131636 | 52 | 44 | 5.0 | 6.0 | 0.00 | 0.00 | 0.00 | 66 | 1016.0 |
| 20260510131133 | 52 | 0 | 4.0 | 5.0 | 0.00 | 0.00 | 0.00 | 64 | 1016.0 |
| 20260510130629 | 52 | 35 | 0.0 | 0.0 | 0.00 | 0.00 | 0.00 | 66 | 1016.0 |
| 20260510130127 | 51 | 18 | 0.0 | 0.0 | 0.00 | 0.00 | 0.00 | 68 | 1016.0 |
| 20260510125623 | 51 | 59 | 5.0 | 5.0 | 0.00 | 0.00 | 0.00 | 69 | 1015.7 |
| 20260510125120 | 51 | 38 | 6.0 | 6.0 | 0.00 | 0.00 | 0.00 | 67 | 1015.7 |
| 20260510124616 | 51 | 24 | 5.0 | 5.0 | 0.00 | 0.00 | 0.00 | 69 | 1015.7 |
| 20260510124113 | 51 | 355 | 4.0 | 4.0 | 0.00 | 0.00 | 0.00 | 69 | 1015.4 |
| 20260510123609 | 51 | 343 | 5.0 | 5.0 | 0.00 | 0.00 | 0.00 | 71 | 1015.4 |
| 20260510123105 | 50 | 36 | 6.0 | 7.0 | 0.00 | 0.00 | 0.00 | 71 | 1015.4 |
| 20260510122601 | 50 | 30 | 6.0 | 6.0 | 0.00 | 0.00 | 0.00 | 71 | 1015.4 |
| 20260510122057 | 50 | 336 | 6.0 | 6.0 | 0.00 | 0.00 | 0.00 | 70 | 1015.4 |
| 20260510121554 | 50 | 34 | 7.0 | 9.0 | 0.00 | 0.00 | 0.00 | 71 | 1015.4 |
| 20260510121051 | 50 | 46 | 4.0 | 4.0 | 0.00 | 0.00 | 0.00 | 72 | 1015.4 |
| 20260510120549 | 49 | 29 | 5.0 | 5.0 | 0.00 | 0.00 | 0.00 | 73 | 1015.4 |
| 20260510120044 | 49 | 20 | 5.0 | 5.0 | 0.00 | 0.00 | 0.00 | 73 | 1015.4 |
| 20260510115541 | 49 | 26 | 4.0 | 5.0 | 0.00 | 0.00 | 0.00 | 73 | 1014.7 |
| 20260510115038 | 49 | 23 | 6.0 | 7.0 | 0.00 | 0.00 | 0.00 | 74 | 1014.7 |
| 20260510114534 | 49 | 22 | 6.0 | 6.0 | 0.00 | 0.00 | 0.00 | 73 | 1014.7 |
| 20260510114030 | 49 | 41 | 4.0 | 4.0 | 0.00 | 0.00 | 0.00 | 75 | 1014.7 |
| 20260510113526 | 49 | 7 | 9.0 | 9.0 | 0.00 | 0.00 | 0.00 | 74 | 1014.7 |
| 20260510113024 | 49 | 42 | 5.0 | 6.0 | 0.00 | 0.00 | 0.00 | 76 | 1014.7 |
| 20260510112520 | 49 | 19 | 4.0 | 4.0 | 0.00 | 0.00 | 0.00 | 76 | 1014.4 |
| 20260510112016 | 49 | 30 | 4.0 | 4.0 | 0.00 | 0.00 | 0.00 | 74 | 1014.4 |
| 20260510111513 | 49 | 30 | 5.0 | 5.0 | 0.00 | 0.00 | 0.00 | 76 | 1014.4 |
| 20260510111009 | 48 | 43 | 7.0 | 8.0 | 0.00 | 0.00 | 0.00 | 77 | 1014.0 |
| 20260510110505 | 49 | 17 | 6.0 | 6.0 | 0.00 | 0.00 | 0.00 | 77 | 1014.0 |
| 20260510110001 | 49 | 16 | 8.0 | 9.0 | 0.00 | 0.00 | 0.00 | 77 | 1013.7 |
| 20260510105456 | 49 | 22 | 6.0 | 6.0 | 0.00 | 0.00 | 0.00 | 79 | 1013.7 |
| 20260510104952 | 49 | 26 | 5.0 | 6.0 | 0.00 | 0.00 | 0.00 | 79 | 1013.7 |
| 20260510104448 | 49 | 31 | 5.0 | 5.0 | 0.00 | 0.00 | 0.00 | 80 | 1013.7 |
| 20260510103945 | 49 | 48 | 7.0 | 8.0 | 0.00 | 0.00 | 0.00 | 78 | 1013.7 |
| 20260510103443 | 49 | 54 | 6.0 | 6.0 | 0.00 | 0.00 | 0.00 | 79 | 1013.7 |
| 20260510102938 | 49 | 27 | 6.0 | 6.0 | 0.00 | 0.00 | 0.00 | 80 | 1013.0 |
| 20260510102434 | 50 | 17 | 7.0 | 8.0 | 0.00 | 0.00 | 0.00 | 79 | 1013.0 |
| 20260510101931 | 50 | 17 | 4.0 | 4.0 | 0.00 | 0.00 | 0.00 | 77 | 1013.0 |
| 20260510101429 | 50 | 24 | 2.0 | 2.0 | 0.00 | 0.00 | 0.00 | 76 | 1012.7 |
| 20260510100927 | 50 | 29 | 4.0 | 4.0 | 0.00 | 0.00 | 0.00 | 75 | 1012.7 |
| 20260510100423 | 50 | 20 | 3.0 | 3.0 | 0.00 | 0.00 | 0.00 | 75 | 1012.7 |
| 20260510095919 | 50 | 30 | 3.0 | 3.0 | 0.00 | 0.00 | 0.00 | 76 | 1012.3 |
| 20260510095415 | 50 | 336 | 3.0 | 3.0 | 0.00 | 0.00 | 0.00 | 76 | 1012.3 |
| 20260510094914 | 50 | 10 | 2.0 | 2.0 | 0.00 | 0.00 | 0.00 | 75 | 1012.3 |
| 20260510094409 | 49 | 30 | 4.0 | 4.0 | 0.00 | 0.00 | 0.00 | 74 | 1012.0 |
| 20260510093905 | 49 | 354 | 4.0 | 4.0 | 0.00 | 0.00 | 0.00 | 78 | 1012.0 |
| 20260510093401 | 48 | 348 | 0.0 | 0.0 | 0.00 | 0.00 | 0.00 | 83 | 1012.0 |
| 20260510092857 | 48 | 257 | 0.0 | 0.0 | 0.00 | 0.00 | 0.00 | 86 | 1012.0 |
| 20260510092354 | 49 | 257 | 0.0 | 0.0 | 0.00 | 0.00 | 0.00 | 87 | 1012.0 |
| 20260510091849 | 49 | 222 | 0.0 | 0.0 | 0.00 | 0.00 | 0.00 | 86 | 1012.0 |
| 20260510091347 | 49 | 222 | 0.0 | 0.0 | 0.00 | 0.00 | 0.00 | 85 | 1012.0 |
| 20260510090843 | 50 | 222 | 0.0 | 0.0 | 0.00 | 0.00 | 0.00 | 84 | 1012.0 |
| 20260510090339 | 50 | 296 | 0.0 | 0.0 | 0.00 | 0.00 | 0.00 | 84 | 1012.0 |
| 20260510085835 | 50 | 315 | 0.0 | 0.0 | 0.00 | 0.00 | 0.00 | 84 | 1011.3 |
| 20260510085330 | 50 | 318 | 0.0 | 0.0 | 0.00 | 0.00 | 0.00 | 84 | 1011.3 |
| 20260510084826 | 50 | 318 | 0.0 | 0.0 | 0.00 | 0.00 | 0.00 | 84 | 1011.3 |
| 20260510084323 | 51 | 318 | 0.0 | 0.0 | 0.00 | 0.00 | 0.00 | 83 | 1011.3 |
| 20260510083820 | 51 | 336 | 0.0 | 0.0 | 0.00 | 0.00 | 0.00 | 81 | 1011.3 |
| 20260510083317 | 51 | 336 | 0.0 | 0.0 | 0.00 | 0.00 | 0.00 | 81 | 1011.3 |
| 20260510082812 | 52 | 336 | 0.0 | 0.0 | 0.00 | 0.00 | 0.00 | 81 | 1011.3 |
| 20260510082310 | 52 | 352 | 0.0 | 0.0 | 0.00 | 0.00 | 0.00 | 80 | 1011.3 |
| 20260510081809 | 52 | 0 | 0.0 | 0.0 | 0.00 | 0.00 | 0.00 | 79 | 1011.3 |
| 20260510081304 | 52 | 29 | 0.0 | 0.0 | 0.00 | 0.00 | 0.00 | 79 | 1011.0 |
| 20260510080801 | 52 | 45 | 0.0 | 0.0 | 0.00 | 0.00 | 0.00 | 78 | 1011.0 |
| 20260510080255 | 52 | 45 | 0.0 | 0.0 | 0.00 | 0.00 | 0.00 | 78 | 1011.0 |
| 20260510075753 | 52 | 36 | 0.0 | 0.0 | 0.00 | 0.00 | 0.00 | 78 | 1011.0 |
| 20260510075250 | 52 | 44 | 2.0 | 2.0 | 0.00 | 0.00 | 0.00 | 78 | 1011.0 |
| 20260510074747 | 52 | 44 | 2.0 | 2.0 | 0.00 | 0.00 | 0.00 | 79 | 1011.0 |
| 20260510074244 | 51 | 15 | 0.0 | 0.0 | 0.00 | 0.00 | 0.00 | 81 | 1010.6 |
| 20260510073739 | 51 | 29 | 3.0 | 3.0 | 0.00 | 0.00 | 0.00 | 80 | 1010.6 |
| 20260510073236 | 51 | 35 | 0.0 | 0.0 | 0.00 | 0.00 | 0.00 | 81 | 1010.6 |
| 20260510072731 | 51 | 45 | 0.0 | 0.0 | 0.00 | 0.00 | 0.00 | 82 | 1010.6 |
| 20260510072228 | 51 | 58 | 0.0 | 0.0 | 0.00 | 0.00 | 0.00 | 82 | 1010.6 |
| 20260510071725 | 51 | 58 | 0.0 | 0.0 | 0.00 | 0.00 | 0.00 | 82 | 1010.6 |
| 20260510071222 | 51 | 58 | 0.0 | 0.0 | 0.00 | 0.00 | 0.00 | 81 | 1010.2 |
| 20260510070720 | 52 | 54 | 0.0 | 0.0 | 0.00 | 0.00 | 0.00 | 79 | 1010.2 |
| 20260510070217 | 52 | 45 | 3.0 | 3.0 | 0.00 | 0.00 | 0.00 | 78 | 1010.2 |
| 20260510065712 | 52 | 30 | 1.0 | 1.0 | 0.00 | 0.00 | 0.00 | 78 | 1009.9 |
| 20260510065208 | 52 | 40 | 3.0 | 3.0 | 0.00 | 0.00 | 0.00 | 77 | 1009.9 |
| 20260510064705 | 52 | 29 | 4.0 | 4.0 | 0.00 | 0.00 | 0.00 | 77 | 1009.9 |
| 20260510064203 | 52 | 28 | 4.0 | 4.0 | 0.00 | 0.00 | 0.00 | 77 | 1009.9 |
| 20260510063659 | 52 | 47 | 4.0 | 4.0 | 0.00 | 0.00 | 0.00 | 78 | 1009.9 |
| 20260510063155 | 53 | 40 | 5.0 | 5.0 | 0.00 | 0.00 | 0.00 | 78 | 1009.9 |
| 20260510062652 | 53 | 65 | 2.0 | 2.0 | 0.00 | 0.00 | 0.00 | 77 | 1009.5 |
| 20260510062148 | 53 | 31 | 4.0 | 4.0 | 0.00 | 0.00 | 0.00 | 76 | 1009.5 |
| 20260510061643 | 53 | 36 | 5.0 | 5.0 | 0.00 | 0.00 | 0.00 | 73 | 1009.5 |
| 20260510061141 | 53 | 32 | 2.0 | 2.0 | 0.00 | 0.00 | 0.00 | 73 | 1009.2 |
| 20260510060637 | 53 | 48 | 0.0 | 0.0 | 0.00 | 0.00 | 0.00 | 70 | 1009.2 |
| 20260510060134 | 54 | 26 | 3.0 | 3.0 | 0.00 | 0.00 | 0.00 | 66 | 1009.2 |
| 20260510055630 | 56 | 38 | 5.0 | 5.0 | 0.00 | 0.00 | 0.00 | 63 | 1009.2 |
| 20260510055129 | 55 | 348 | 4.0 | 4.0 | 0.00 | 0.00 | 0.00 | 63 | 1009.2 |
| 20260510054623 | 56 | 346 | 4.0 | 4.0 | 0.00 | 0.00 | 0.00 | 64 | 1009.2 |
| 20260510054119 | 56 | 342 | 5.0 | 5.0 | 0.00 | 0.00 | 0.00 | 63 | 1009.2 |
| 20260510053618 | 56 | 330 | 5.0 | 6.0 | 0.00 | 0.00 | 0.00 | 62 | 1009.2 |
| 20260510053115 | 56 | 342 | 8.0 | 9.0 | 0.00 | 0.00 | 0.00 | 63 | 1009.2 |
| 20260510052611 | 56 | 342 | 5.0 | 6.0 | 0.00 | 0.00 | 0.00 | 63 | 1008.8 |
| 20260510052108 | 56 | 342 | 5.0 | 5.0 | 0.00 | 0.00 | 0.00 | 63 | 1008.8 |
| 20260510051603 | 56 | 330 | 4.0 | 4.0 | 0.00 | 0.00 | 0.00 | 62 | 1008.8 |
| 20260510051100 | 57 | 350 | 4.0 | 4.0 | 0.00 | 0.00 | 0.00 | 62 | 1008.5 |
| 20260510050558 | 57 | 346 | 7.0 | 8.0 | 0.00 | 0.00 | 0.00 | 61 | 1008.5 |
| 20260510050055 | 58 | 346 | 4.0 | 4.0 | 0.00 | 0.00 | 0.00 | 61 | 1008.5 |
| 20260510045552 | 58 | 6 | 5.0 | 5.0 | 0.00 | 0.00 | 0.00 | 62 | 1008.2 |
| 20260510045047 | 58 | 348 | 6.0 | 6.0 | 0.00 | 0.00 | 0.00 | 61 | 1008.2 |
| 20260510044544 | 58 | 356 | 5.0 | 5.0 | 0.00 | 0.00 | 0.00 | 64 | 1008.2 |
| 20260510044042 | 59 | 330 | 5.0 | 5.0 | 0.00 | 0.00 | 0.00 | 62 | 1007.5 |
| 20260510043537 | 59 | 325 | 8.0 | 10.0 | 0.00 | 0.00 | 0.00 | 63 | 1007.5 |
| 20260510043033 | 59 | 335 | 5.0 | 5.0 | 0.00 | 0.00 | 0.00 | 67 | 1007.5 |
| 20260510042527 | 59 | 318 | 6.0 | 6.0 | 0.00 | 0.00 | 0.00 | 67 | 1007.5 |
| 20260510042028 | 59 | 294 | 6.0 | 6.0 | 0.00 | 0.00 | 0.00 | 71 | 1007.5 |
| 20260510041525 | 59 | 352 | 4.0 | 4.0 | 0.00 | 0.00 | 0.00 | 76 | 1006.8 |
| 20260510041023 | 59 | 285 | 6.0 | 6.0 | 0.00 | 0.00 | 0.00 | 77 | 1006.8 |
| 20260510040519 | 59 | 305 | 6.0 | 7.0 | 0.00 | 0.00 | 0.00 | 76 | 1006.8 |
| 20260510040015 | 58 | 322 | 6.0 | 6.0 | 0.00 | 0.00 | 0.00 | 79 | 1006.8 |
| 20260510035512 | 58 | 286 | 4.0 | 4.0 | 0.00 | 0.01 | 0.01 | 84 | 1006.8 |
| 20260510035011 | 58 | 276 | 2.0 | 2.0 | 0.00 | 0.01 | 0.01 | 84 | 1006.8 |
| 20260510034510 | 59 | 302 | 3.0 | 3.0 | 0.00 | 0.01 | 0.01 | 83 | 1006.8 |
| 20260510034006 | 58 | 222 | 0.0 | 0.0 | 0.00 | 0.01 | 0.01 | 84 | 1006.1 |
| 20260510033502 | 59 | 300 | 3.0 | 3.0 | 0.00 | 0.01 | 0.01 | 84 | 1006.1 |
| 20260510033001 | 60 | 240 | 0.0 | 0.0 | 0.00 | 0.01 | 0.01 | 81 | 1005.8 |
| 20260510032457 | 60 | 212 | 0.0 | 0.0 | 0.00 | 0.01 | 0.01 | 79 | 1005.8 |
| 20260510031957 | 60 | 252 | 2.0 | 2.0 | 0.00 | 0.01 | 0.01 | 79 | 1005.8 |
| 20260510031452 | 60 | 282 | 0.0 | 0.0 | 0.00 | 0.01 | 0.01 | 79 | 1005.8 |
| 20260510030949 | 60 | 222 | 4.0 | 5.0 | 0.00 | 0.01 | 0.01 | 76 | 1005.8 |
| 20260510030444 | 61 | 241 | 5.0 | 5.0 | 0.00 | 0.01 | 0.01 | 75 | 1005.8 |
| 20260510025942 | 61 | 220 | 2.0 | 2.0 | 0.00 | 0.01 | 0.01 | 75 | 1005.4 |
| 20260510025439 | 60 | 222 | 4.0 | 4.0 | 0.00 | 0.01 | 0.01 | 74 | 1005.4 |
| 20260510024936 | 60 | 216 | 4.0 | 4.0 | 0.00 | 0.01 | 0.01 | 74 | 1005.4 |
| 20260510024433 | 60 | 217 | 3.0 | 3.0 | 0.00 | 0.01 | 0.01 | 75 | 1005.4 |
| 20260510023928 | 60 | 239 | 4.0 | 4.0 | 0.00 | 0.01 | 0.01 | 75 | 1005.4 |
| 20260510023425 | 59 | 230 | 4.0 | 4.0 | 0.00 | 0.01 | 0.01 | 75 | 1005.4 |
| 20260510022922 | 59 | 225 | 4.0 | 4.0 | 0.00 | 0.01 | 0.01 | 76 | 1005.1 |
| 20260510022421 | 58 | 222 | 2.0 | 2.0 | 0.00 | 0.01 | 0.01 | 79 | 1005.1 |
| 20260510021920 | 58 | 242 | 2.0 | 2.0 | 0.00 | 0.01 | 0.01 | 79 | 1005.1 |
| 20260510021419 | 59 | 209 | 3.0 | 3.0 | 0.00 | 0.01 | 0.01 | 79 | 1005.1 |
| 20260510020915 | 59 | 186 | 2.0 | 2.0 | 0.00 | 0.01 | 0.01 | 79 | 1005.1 |
| 20260510020410 | 60 | 221 | 2.0 | 2.0 | 0.00 | 0.01 | 0.01 | 76 | 1005.1 |
| 20260510015906 | 59 | 209 | 2.0 | 2.0 | 0.00 | 0.01 | 0.01 | 78 | 1004.7 |
| 20260510015402 | 59 | 222 | 2.0 | 2.0 | 0.00 | 0.01 | 0.01 | 80 | 1004.7 |
| 20260510014857 | 60 | 243 | 2.0 | 2.0 | 0.00 | 0.01 | 0.01 | 78 | 1004.7 |
| 20260510014355 | 61 | 239 | 4.0 | 4.0 | 0.00 | 0.01 | 0.01 | 77 | 1004.7 |
| 20260510013851 | 61 | 230 | 3.0 | 3.0 | 0.00 | 0.01 | 0.01 | 77 | 1004.7 |
| 20260510013346 | 61 | 222 | 3.0 | 3.0 | 0.00 | 0.01 | 0.01 | 76 | 1004.7 |
| 20260510012841 | 61 | 220 | 6.0 | 6.0 | 0.00 | 0.01 | 0.01 | 76 | 1004.7 |
| 20260510012341 | 61 | 246 | 6.0 | 6.0 | 0.00 | 0.01 | 0.01 | 76 | 1004.7 |
| 20260510011836 | 61 | 228 | 5.0 | 5.0 | 0.00 | 0.01 | 0.01 | 77 | 1004.7 |
| 20260510011332 | 60 | 235 | 6.0 | 7.0 | 0.00 | 0.01 | 0.01 | 77 | 1004.0 |
| 20260510010828 | 60 | 180 | 5.0 | 5.0 | 0.00 | 0.01 | 0.01 | 78 | 1004.0 |
| 20260510010326 | 60 | 213 | 3.0 | 3.0 | 0.00 | 0.01 | 0.01 | 78 | 1004.0 |
| 20260510005822 | 60 | 246 | 3.0 | 3.0 | 0.00 | 0.01 | 0.01 | 79 | 1004.0 |
| 20260510005319 | 60 | 196 | 1.0 | 1.0 | 0.00 | 0.01 | 0.01 | 79 | 1004.0 |
| 20260510004817 | 60 | 239 | 1.0 | 1.0 | 0.00 | 0.01 | 0.01 | 80 | 1004.0 |
| 20260510004314 | 60 | 227 | 2.0 | 2.0 | 0.00 | 0.01 | 0.01 | 79 | 1004.0 |
| 20260510003811 | 60 | 192 | 2.0 | 2.0 | 0.00 | 0.01 | 0.01 | 78 | 1004.0 |
| 20260510003308 | 60 | 233 | 2.0 | 2.0 | 0.00 | 0.01 | 0.01 | 77 | 1004.0 |
| 20260510002807 | 61 | 199 | 3.0 | 3.0 | 0.00 | 0.01 | 0.01 | 76 | 1003.7 |
| 20260510002307 | 61 | 227 | 3.0 | 3.0 | 0.00 | 0.01 | 0.01 | 75 | 1003.7 |
| 20260510001801 | 61 | 227 | 3.0 | 3.0 | 0.00 | 0.01 | 0.01 | 76 | 1003.7 |
| 20260510001259 | 62 | 234 | 2.0 | 2.0 | 0.00 | 0.01 | 0.01 | 75 | 1004.0 |
| 20260510000754 | 62 | 204 | 5.0 | 5.0 | 0.00 | 0.01 | 0.01 | 74 | 1004.0 |
| 20260510000252 | 62 | 229 | 5.0 | 5.0 | 0.00 | 0.01 | 0.01 | 74 | 1004.0 |
| 20260509235749 | 62 | 198 | 5.0 | 6.0 | 0.00 | 0.01 | 0.01 | 74 | 1004.0 |
| 20260509235246 | 62 | 212 | 5.0 | 6.0 | 0.00 | 0.01 | 0.01 | 73 | 1004.0 |
| 20260509234741 | 63 | 199 | 5.0 | 6.0 | 0.00 | 0.01 | 0.01 | 73 | 1004.0 |
| 20260509234238 | 63 | 252 | 6.0 | 7.0 | 0.00 | 0.01 | 0.01 | 72 | 1004.0 |
| 20260509233737 | 63 | 218 | 6.0 | 6.0 | 0.00 | 0.01 | 0.01 | 71 | 1004.0 |
| 20260509233234 | 63 | 252 | 7.0 | 8.0 | 0.00 | 0.01 | 0.01 | 71 | 1004.0 |
| 20260509232730 | 64 | 228 | 7.0 | 8.0 | 0.00 | 0.01 | 0.01 | 70 | 1004.0 |
| 20260509232227 | 64 | 258 | 3.0 | 3.0 | 0.00 | 0.01 | 0.01 | 69 | 1004.0 |
| 20260509231723 | 64 | 222 | 6.0 | 6.0 | 0.00 | 0.01 | 0.01 | 70 | 1004.0 |
| 20260509231221 | 64 | 227 | 2.0 | 2.0 | 0.00 | 0.01 | 0.01 | 68 | 1004.0 |